Airfield :
LOGIN :

Register | Disclaimer

   EN    FR    IT 

 










Legend :    VFR   Marginal VFR   IFR   Intensive IFR   Very Intensive IFR
Visi :
Ceiling :
>= 8 km
>= 3000ft
5 to 8 km
1000 to 3000 ft
1500m to 5 km
500 to 1000 ft
800 to 1500m
200 to 500 ft
< 800m
< 200 ft
Symbols :   Thunderstorms  Fog  Heavy snow  Heavy precipitations  Wind > 20 kt
SIGMETs :     Misc.  Thunderstorms  Icing  Turbulence  Mountain Waves  Volcanic Ashes






- Airport Elevation : 580 ft


LFOA - Avord

CURRENT METAR :
  • 142200Z AUTO 00000KT CAVOK 17/16 Q1016

EXPIRED METARs :
  • 142130Z AUTO 19001KT CAVOK 17/16 Q1016
  • 142100Z AUTO 00000KT CAVOK 18/16 Q1016
  • 142030Z AUTO 26002KT CAVOK 18/16 Q1016
  • 142000Z AUTO 23003KT CAVOK 19/16 Q1016
  • 141930Z AUTO 21002KT CAVOK 20/16 Q1016

TAF TAF LFOA
Valid from the 14 at 09:00 until the 15 at 09:00 UTC


140800Z 1409/1509 24010KT 9999 BKN025
TEMPO 1409/1413 4000 SHRA BKN008 BKN014TCU
BECMG 1413/1415 SCT040
BECMG 1420/1422 VRB02KT
TEMPO 1500/1508 2000 BR
PROB40
TEMPO 1503/1507 0800 BCFG VV///



MET'MAP, your aeronautical weather chart ! - Copyright ORBIFLY December 2007 - Disclaimer

ORBIFLY MET'MAP TEAM :

Programming & Development : Alexandra Zaïnal
Concept & original design : Baudouin d'Aumeries
Assistance for programming : Marc-Olivier Méhu
Technical & hardware support : Manuel Goepfert

Contact : metmap@orbifly.com




SOURCES & CREDITS :

   NOAA